Time;durP1;ratioP1;P1;durP2;ratioP2;P2;SDS_P1;SDS_P2;PMS_P1;PMS_P2;Temp;Humidity;BMP_temperature;BMP_pressure;BME280_temperature;BME280_humidity;BME280_pressure;Samples;Min_cycle;Max_cycle;Signal;HPM_P1;HPM_P2
2022/04/12 00:00:05;;;;;;;0.40;0.40;;;6.50;99.90;;;;;;4429059;32;20754;-68
2022/04/12 00:02:31;;;;;;;1.25;0.95;;;6.40;99.90;;;;;;4427017;32;20070;-69
2022/04/12 00:04:56;;;;;;;0.77;0.77;;;6.40;99.90;;;;;;4427424;32;20504;-68
2022/04/12 00:07:22;;;;;;;1.48;1.02;;;6.40;99.90;;;;;;4428063;32;20521;-68
2022/04/12 00:09:53;;;;;;;0.50;0.50;;;6.40;99.90;;;;;;4426021;32;20077;-69
2022/04/12 00:12:19;;;;;;;0.52;0.52;;;6.30;99.90;;;;;;4424675;32;20082;-69
2022/04/12 00:14:44;;;;;;;0.43;0.43;;;6.20;99.90;;;;;;4426664;32;20065;-69
2022/04/12 00:19:12;;;;;;;6.65;2.28;;;6.20;99.90;;;;;;4426521;32;20113;-69
2022/04/12 00:19:56;;;;;;;1.10;0.93;;;6.20;99.90;;;;;;4422719;32;20481;-69
2022/04/12 00:22:21;;;;;;;1.85;0.95;;;6.20;99.90;;;;;;4430734;32;20220;-69
2022/04/12 00:24:47;;;;;;;0.40;0.40;;;6.20;99.90;;;;;;4428274;32;20477;-68
2022/04/12 00:27:12;;;;;;;0.50;0.50;;;6.20;99.90;;;;;;4432079;32;20077;-68
2022/04/12 00:29:38;;;;;;;0.50;0.50;;;6.10;99.90;;;;;;4432831;32;20547;-69
2022/04/12 00:32:03;;;;;;;0.43;0.43;;;6.00;99.90;;;;;;4430342;32;20081;-69
2022/04/12 00:34:29;;;;;;;0.52;0.52;;;6.00;99.90;;;;;;4430294;32;20117;-68
2022/04/12 00:36:54;;;;;;;0.40;0.40;;;5.90;99.90;;;;;;4428706;32;20070;-68
2022/04/12 00:39:20;;;;;;;0.40;0.40;;;6.00;99.90;;;;;;4431876;32;20089;-68
2022/04/12 00:41:45;;;;;;;0.50;0.50;;;5.90;99.90;;;;;;4429606;32;20098;-69
2022/04/12 00:44:11;;;;;;;0.60;0.60;;;5.90;99.90;;;;;;4430611;32;20896;-68
2022/04/12 00:46:36;;;;;;;0.60;0.60;;;5.90;99.90;;;;;;4430465;32;20070;-68
2022/04/12 00:49:02;;;;;;;0.70;0.70;;;5.90;99.90;;;;;;4431932;32;20074;-68
2022/04/12 00:51:29;;;;;;;0.80;0.80;;;5.90;99.90;;;;;;4430317;32;20081;-68
2022/04/12 00:53:56;;;;;;;2.20;1.17;;;5.90;99.90;;;;;;4429934;32;20058;-68
2022/04/12 00:56:22;;;;;;;0.73;0.73;;;5.90;99.90;;;;;;4427585;32;20081;-69
2022/04/12 00:58:49;;;;;;;0.40;0.40;;;5.90;99.90;;;;;;4429372;32;20056;-69
2022/04/12 01:01:15;;;;;;;0.60;0.60;;;5.70;99.90;;;;;;4426332;32;20061;-69
2022/04/12 01:03:41;;;;;;;0.30;0.30;;;5.70;99.90;;;;;;4427121;32;20117;-69
2022/04/12 01:06:07;;;;;;;0.60;0.60;;;5.60;99.90;;;;;;4429484;32;20081;-70
2022/04/12 01:08:34;;;;;;;0.62;0.62;;;5.60;99.90;;;;;;4429861;32;20149;-69
2022/04/12 01:11:06;;;;;;;0.50;0.50;;;5.70;99.90;;;;;;4428443;32;20135;-69
2022/04/12 01:13:33;;;;;;;8.35;1.20;;;5.60;99.90;;;;;;4429068;32;20066;-69
2022/04/12 01:15:58;;;;;;;2.05;1.10;;;5.40;99.90;;;;;;4429531;32;20065;-69
2022/04/12 01:18:24;;;;;;;1.02;0.52;;;5.40;99.90;;;;;;4431368;32;20298;-69
2022/04/12 01:20:49;;;;;;;0.40;0.40;;;5.40;99.90;;;;;;4429805;32;20149;-69
2022/04/12 01:23:21;;;;;;;0.45;0.45;;;5.40;99.90;;;;;;4428734;32;20611;-69
2022/04/12 01:25:47;;;;;;;1.05;1.00;;;5.40;99.90;;;;;;4429152;32;20441;-69
2022/04/12 01:28:12;;;;;;;1.17;0.75;;;5.40;99.90;;;;;;4430144;32;20179;-68
2022/04/12 01:30:39;;;;;;;1.87;0.88;;;5.40;99.90;;;;;;4426391;32;20078;-69
2022/04/12 01:33:04;;;;;;;0.65;0.65;;;5.40;99.90;;;;;;4427841;32;20533;-69
2022/04/12 01:35:31;;;;;;;0.60;0.60;;;5.50;99.90;;;;;;4429598;32;20065;-69
2022/04/12 01:37:59;;;;;;;1.62;1.30;;;5.40;99.90;;;;;;4431524;32;20061;-69
2022/04/12 01:40:25;;;;;;;0.40;0.40;;;5.40;99.90;;;;;;4433063;32;20078;-69
2022/04/12 01:42:52;;;;;;;0.57;0.57;;;5.50;99.90;;;;;;4428828;32;20070;-69
2022/04/12 01:45:19;;;;;;;0.40;0.40;;;5.40;99.90;;;;;;4430799;32;20082;-69
2022/04/12 01:47:44;;;;;;;0.40;0.40;;;5.40;99.90;;;;;;4430435;32;20077;-69
2022/04/12 01:50:10;;;;;;;0.40;0.40;;;5.40;99.90;;;;;;4431145;32;20065;-69
2022/04/12 01:52:36;;;;;;;0.80;0.65;;;5.30;99.90;;;;;;4427056;32;20112;-69
2022/04/12 01:55:02;;;;;;;0.68;0.68;;;5.20;99.90;;;;;;4429264;32;20069;-69
2022/04/12 01:57:29;;;;;;;1.60;1.17;;;5.30;99.90;;;;;;4430819;32;20082;-69
2022/04/12 01:59:54;;;;;;;0.95;0.95;;;5.30;99.90;;;;;;4427988;32;20116;-69
2022/04/12 02:02:20;;;;;;;0.60;0.60;;;5.30;99.90;;;;;;4429961;32;20070;-69
2022/04/12 02:04:45;;;;;;;1.15;1.05;;;5.30;99.90;;;;;;4430078;32;20508;-68
2022/04/12 02:07:12;;;;;;;0.50;0.50;;;5.30;99.90;;;;;;4427333;32;20406;-68
2022/04/12 02:09:37;;;;;;;0.80;0.80;;;5.20;99.90;;;;;;4429490;32;20511;-69
2022/04/12 02:12:03;;;;;;;0.30;0.30;;;5.20;99.90;;;;;;4427745;32;20061;-69
2022/04/12 02:14:29;;;;;;;0.47;0.47;;;5.20;99.90;;;;;;4428540;32;20076;-69
2022/04/12 02:16:55;;;;;;;0.57;0.57;;;5.20;99.90;;;;;;4428281;32;20465;-69
2022/04/12 02:19:20;;;;;;;0.95;0.93;;;5.10;99.90;;;;;;4428824;32;20077;-69
2022/04/12 02:21:46;;;;;;;0.75;0.75;;;5.10;99.90;;;;;;4427637;32;20497;-69
2022/04/12 02:24:11;;;;;;;0.70;0.70;;;5.00;99.90;;;;;;4428608;32;20126;-69
2022/04/12 02:26:37;;;;;;;0.47;0.47;;;5.00;99.90;;;;;;4427022;32;20105;-69
2022/04/12 02:29:02;;;;;;;0.35;0.35;;;5.00;99.90;;;;;;4430164;32;20169;-69
2022/04/12 02:31:28;;;;;;;0.80;0.80;;;5.10;99.90;;;;;;4427923;32;20439;-69
2022/04/12 02:33:53;;;;;;;0.50;0.50;;;5.00;99.90;;;;;;4426061;32;20116;-69
2022/04/12 02:36:19;;;;;;;1.02;0.65;;;5.00;99.90;;;;;;4427912;32;20434;-69
2022/04/12 02:38:44;;;;;;;0.30;0.30;;;5.00;99.90;;;;;;4430317;32;20069;-69
2022/04/12 02:41:10;;;;;;;1.08;0.98;;;4.90;99.90;;;;;;4427581;32;20082;-69
2022/04/12 02:43:36;;;;;;;0.32;0.32;;;4.90;99.90;;;;;;4428250;32;20417;-68
2022/04/12 02:46:02;;;;;;;0.55;0.55;;;4.80;99.90;;;;;;4425818;32;20057;-68
2022/04/12 02:48:28;;;;;;;0.30;0.30;;;4.80;99.90;;;;;;4427660;32;20165;-68
2022/04/12 02:50:53;;;;;;;0.47;0.47;;;4.80;99.90;;;;;;4429111;32;20069;-68
2022/04/12 02:53:18;;;;;;;0.40;0.40;;;4.90;99.90;;;;;;4425980;32;20195;-68
2022/04/12 02:55:44;;;;;;;0.40;0.40;;;4.90;99.90;;;;;;4426884;32;20074;-69
2022/04/12 02:58:09;;;;;;;0.57;0.57;;;4.90;99.90;;;;;;4427858;32;20121;-68
2022/04/12 03:00:35;;;;;;;1.85;1.15;;;4.90;99.90;;;;;;4427016;32;20576;-69
2022/04/12 03:03:00;;;;;;;0.30;0.30;;;4.90;99.90;;;;;;4428825;32;20074;-69
2022/04/12 03:05:26;;;;;;;0.40;0.40;;;4.80;99.90;;;;;;4427169;32;20517;-69
2022/04/12 03:07:51;;;;;;;0.70;0.70;;;4.60;99.90;;;;;;4427401;32;20065;-69
2022/04/12 03:10:17;;;;;;;0.55;0.55;;;4.50;99.90;;;;;;4425067;32;21146;-69
2022/04/12 03:12:42;;;;;;;1.75;0.60;;;4.40;99.90;;;;;;4427898;32;20105;-68
2022/04/12 03:15:09;;;;;;;0.37;0.37;;;4.50;99.90;;;;;;4426639;32;20107;-68
2022/04/12 03:17:35;;;;;;;0.40;0.40;;;4.50;99.90;;;;;;4428264;32;20090;-69
2022/04/12 03:20:00;;;;;;;0.45;0.45;;;4.50;99.90;;;;;;4427159;32;20066;-69
2022/04/12 03:22:26;;;;;;;0.40;0.40;;;4.50;99.90;;;;;;4427488;32;20065;-69
2022/04/12 03:24:51;;;;;;;0.50;0.50;;;4.60;99.90;;;;;;4427310;32;20128;-69
2022/04/12 03:27:17;;;;;;;0.47;0.47;;;4.50;99.90;;;;;;4428070;32;20061;-69
2022/04/12 03:29:42;;;;;;;3.30;1.87;;;4.40;99.90;;;;;;4426769;32;20061;-69
2022/04/12 03:32:08;;;;;;;0.43;0.43;;;4.50;99.90;;;;;;4427095;32;20128;-69
2022/04/12 03:34:36;;;;;;;2.62;0.70;;;4.40;99.90;;;;;;4427527;32;20503;-69
2022/04/12 03:37:01;;;;;;;0.50;0.50;;;4.40;99.90;;;;;;4425497;32;20473;-69
2022/04/12 03:39:27;;;;;;;0.57;0.57;;;4.40;99.90;;;;;;4427752;32;20070;-68
2022/04/12 03:41:52;;;;;;;0.55;0.55;;;4.50;99.90;;;;;;4426397;32;20073;-68
2022/04/12 03:44:18;;;;;;;0.80;0.60;;;4.50;99.90;;;;;;4428319;32;20080;-68
2022/04/12 03:46:44;;;;;;;0.40;0.40;;;4.40;99.90;;;;;;4414960;32;20061;-68
2022/04/12 03:49:10;;;;;;;0.50;0.50;;;4.30;99.90;;;;;;4427191;32;20534;-68
2022/04/12 03:51:36;;;;;;;0.77;0.65;;;4.20;99.90;;;;;;4427253;32;20101;-68
2022/04/12 03:54:03;;;;;;;0.45;0.45;;;4.20;99.90;;;;;;4426288;32;20094;-68
2022/04/12 03:56:29;;;;;;;7.53;1.58;;;4.20;99.90;;;;;;4425792;32;20064;-68
2022/04/12 03:58:57;;;;;;;0.47;0.47;;;4.20;99.90;;;;;;4428058;32;20093;-68
2022/04/12 04:01:23;;;;;;;0.70;0.70;;;4.30;99.90;;;;;;4425600;32;20121;-68
2022/04/12 04:03:48;;;;;;;0.40;0.40;;;4.30;99.90;;;;;;4427037;32;20072;-68
2022/04/12 04:06:14;;;;;;;0.37;0.37;;;4.20;99.90;;;;;;4428826;32;20077;-68
2022/04/12 04:08:39;;;;;;;3.28;1.37;;;4.20;99.90;;;;;;4427727;32;20445;-68
2022/04/12 04:11:05;;;;;;;0.40;0.40;;;4.10;99.90;;;;;;4427595;32;20116;-68
2022/04/12 04:13:36;;;;;;;0.70;0.70;;;4.10;99.90;;;;;;4426503;32;20069;-70
2022/04/12 04:16:02;;;;;;;0.70;0.70;;;4.20;99.90;;;;;;4428149;32;20085;-69
2022/04/12 04:18:27;;;;;;;4.50;1.15;;;4.30;99.90;;;;;;4428397;32;20062;-69
2022/04/12 04:20:53;;;;;;;0.40;0.40;;;4.20;99.90;;;;;;4426327;32;20132;-69
2022/04/12 04:23:18;;;;;;;0.50;0.50;;;4.30;99.90;;;;;;4427251;32;20524;-68
2022/04/12 04:25:44;;;;;;;1.27;1.08;;;4.30;99.90;;;;;;4425150;32;20071;-69
2022/04/12 04:28:12;;;;;;;1.02;1.02;;;4.30;99.90;;;;;;4427927;32;20073;-68
2022/04/12 04:30:39;;;;;;;0.40;0.40;;;4.30;99.90;;;;;;4425431;32;20576;-69
2022/04/12 04:33:07;;;;;;;0.40;0.40;;;4.30;99.90;;;;;;4426990;32;20125;-69
2022/04/12 04:35:32;;;;;;;0.40;0.40;;;4.40;99.90;;;;;;4427672;32;20509;-69
2022/04/12 04:37:57;;;;;;;0.43;0.43;;;4.30;99.90;;;;;;4428724;32;20437;-69
2022/04/12 04:40:24;;;;;;;0.70;0.62;;;4.30;99.90;;;;;;4426722;32;20066;-69
2022/04/12 04:42:53;;;;;;;2.42;1.40;;;4.40;99.90;;;;;;4426717;32;20500;-69
2022/04/12 04:45:19;;;;;;;3.65;0.88;;;4.40;99.90;;;;;;4426353;32;20351;-69
2022/04/12 04:48:02;;;;;;;0.55;0.55;;;4.40;99.90;;;;;;4427900;32;20155;-69
2022/04/12 04:50:29;;;;;;;0.40;0.40;;;4.40;99.90;;;;;;4426652;32;20098;-69
2022/04/12 04:52:56;;;;;;;0.82;0.82;;;4.40;99.90;;;;;;4425768;32;20054;-69
2022/04/12 04:55:22;;;;;;;1.08;0.98;;;4.50;99.90;;;;;;4426759;32;20062;-69
2022/04/12 04:57:48;;;;;;;1.33;0.52;;;4.50;99.90;;;;;;4427927;32;20108;-69
2022/04/12 05:00:17;;;;;;;3.83;1.17;;;4.50;99.90;;;;;;4426480;32;20198;-69
2022/04/12 05:02:45;;;;;;;0.40;0.40;;;4.60;99.90;;;;;;4424454;32;20081;-68
2022/04/12 05:05:11;;;;;;;0.45;0.45;;;4.60;99.90;;;;;;4424243;32;20069;-68
2022/04/12 05:07:37;;;;;;;1.48;0.80;;;4.60;99.90;;;;;;4424233;32;20082;-68
2022/04/12 05:10:04;;;;;;;1.45;1.23;;;4.50;99.90;;;;;;4424759;32;20075;-68
2022/04/12 05:12:29;;;;;;;0.55;0.55;;;4.50;99.90;;;;;;4422223;32;20106;-69
2022/04/12 05:14:55;;;;;;;0.47;0.47;;;4.60;99.90;;;;;;4420466;32;20049;-68
2022/04/12 05:17:25;;;;;;;1.77;1.52;;;4.60;99.90;;;;;;4421747;32;20072;-68
2022/04/12 05:19:51;;;;;;;0.55;0.55;;;4.70;99.90;;;;;;4423278;32;20065;-68
2022/04/12 05:22:17;;;;;;;0.35;0.35;;;4.70;99.90;;;;;;4426099;32;20070;-69
2022/04/12 05:24:42;;;;;;;0.62;0.62;;;4.80;99.90;;;;;;4424283;32;20098;-69
2022/04/12 05:27:08;;;;;;;2.22;1.37;;;4.90;99.90;;;;;;4425821;32;20283;-69
2022/04/12 05:29:33;;;;;;;1.37;0.98;;;4.90;99.90;;;;;;4427253;32;20665;-68
2022/04/12 05:31:59;;;;;;;1.80;1.00;;;4.90;99.90;;;;;;4430228;32;20094;-69
2022/04/12 05:34:24;;;;;;;17.02;1.15;;;5.00;99.90;;;;;;4430518;32;20461;-69
2022/04/12 05:36:50;;;;;;;0.93;0.82;;;5.10;99.90;;;;;;4429847;32;20077;-69
2022/04/12 05:39:15;;;;;;;0.50;0.50;;;5.20;99.90;;;;;;4431133;32;20074;-68
2022/04/12 05:41:41;;;;;;;1.05;0.80;;;5.30;99.90;;;;;;4431952;32;20057;-68
2022/04/12 05:44:07;;;;;;;0.68;0.68;;;5.30;99.90;;;;;;4430957;32;20077;-68
2022/04/12 05:46:32;;;;;;;0.50;0.50;;;5.40;99.90;;;;;;4431716;32;20862;-68
2022/04/12 05:48:57;;;;;;;0.90;0.90;;;5.40;99.90;;;;;;4432537;32;20089;-68
2022/04/12 05:51:23;;;;;;;0.30;0.30;;;5.50;99.90;;;;;;4430952;32;20077;-68
2022/04/12 05:53:48;;;;;;;0.80;0.80;;;5.60;99.90;;;;;;4431217;32;20131;-68
2022/04/12 05:56:14;;;;;;;0.62;0.62;;;5.70;99.90;;;;;;4427094;32;20061;-68
2022/04/12 05:58:40;;;;;;;0.73;0.73;;;5.70;99.90;;;;;;4429540;32;20078;-69
2022/04/12 06:01:06;;;;;;;0.93;0.75;;;5.80;99.90;;;;;;4424004;32;20117;-69
2022/04/12 06:03:31;;;;;;;0.45;0.45;;;6.00;99.90;;;;;;4427396;32;20517;-68
2022/04/12 06:05:57;;;;;;;0.52;0.52;;;6.00;99.90;;;;;;4423988;32;20828;-69
2022/04/12 06:08:22;;;;;;;2.00;1.10;;;6.20;99.90;;;;;;4428141;32;20097;-68
2022/04/12 06:10:48;;;;;;;0.43;0.43;;;6.30;99.90;;;;;;4424959;32;20061;-68
2022/04/12 06:13:14;;;;;;;0.40;0.40;;;6.40;99.90;;;;;;4415432;32;20073;-68
2022/04/12 06:15:39;;;;;;;0.40;0.40;;;6.50;99.90;;;;;;4419002;32;20073;-68
2022/04/12 06:18:06;;;;;;;1.17;1.10;;;6.60;99.90;;;;;;4424043;32;20074;-68
2022/04/12 06:20:32;;;;;;;1.20;1.10;;;6.60;99.90;;;;;;4422044;32;20073;-68
2022/04/12 06:22:57;;;;;;;0.40;0.40;;;6.70;99.90;;;;;;4427060;32;20086;-68
2022/04/12 06:25:23;;;;;;;0.60;0.60;;;6.80;99.90;;;;;;4432053;32;20070;-69
2022/04/12 06:27:50;;;;;;;0.60;0.60;;;6.90;99.90;;;;;;4430933;32;20066;-69
2022/04/12 06:30:25;;;;;;;4.30;1.25;;;6.90;99.90;;;;;;4429969;32;20061;-69
2022/04/12 06:32:51;;;;;;;0.90;0.90;;;7.10;99.90;;;;;;4427364;32;20117;-69
2022/04/12 06:35:17;;;;;;;27.55;4.05;;;7.20;99.90;;;;;;4421168;32;20086;-69
2022/04/12 06:37:45;;;;;;;0.60;0.60;;;7.30;99.90;;;;;;4421672;32;20600;-69
2022/04/12 06:40:12;;;;;;;0.52;0.52;;;7.40;99.90;;;;;;4423180;32;20065;-69
2022/04/12 06:42:38;;;;;;;4.62;0.98;;;7.50;99.90;;;;;;4423676;32;20444;-69
2022/04/12 06:45:05;;;;;;;0.60;0.60;;;7.50;99.90;;;;;;4422551;32;20497;-69
2022/04/12 06:47:32;;;;;;;0.62;0.62;;;7.60;99.90;;;;;;4428574;32;20069;-69
2022/04/12 06:49:58;;;;;;;0.93;0.93;;;7.70;99.90;;;;;;4422947;32;20078;-69
2022/04/12 06:52:24;;;;;;;0.50;0.50;;;7.90;99.90;;;;;;4431458;32;20160;-69
2022/04/12 06:54:50;;;;;;;0.60;0.60;;;8.10;99.90;;;;;;4430195;32;20065;-68
2022/04/12 06:57:16;;;;;;;0.60;0.60;;;8.20;99.90;;;;;;4427633;32;20074;-68
2022/04/12 06:59:42;;;;;;;1.23;1.15;;;8.30;99.90;;;;;;4428121;32;20160;-68
2022/04/12 07:02:07;;;;;;;0.68;0.68;;;8.40;99.90;;;;;;4430562;32;20080;-68
2022/04/12 07:04:33;;;;;;;2.10;1.30;;;8.40;99.90;;;;;;4433151;32;20554;-68
2022/04/12 07:06:59;;;;;;;0.57;0.57;;;8.60;99.90;;;;;;4424388;32;20560;-68
2022/04/12 07:09:27;;;;;;;0.55;0.55;;;8.70;99.90;;;;;;4424919;32;20074;-68
2022/04/12 07:11:55;;;;;;;0.95;0.95;;;8.80;99.90;;;;;;4429462;32;20065;-68
2022/04/12 07:14:21;;;;;;;0.70;0.57;;;8.90;99.90;;;;;;4424204;32;20090;-69
2022/04/12 07:16:46;;;;;;;0.47;0.47;;;9.00;99.90;;;;;;4431619;32;20066;-68
2022/04/12 07:19:11;;;;;;;0.40;0.40;;;9.10;99.90;;;;;;4431532;32;20625;-69
2022/04/12 07:21:37;;;;;;;1.05;0.98;;;9.30;99.90;;;;;;4431298;32;20405;-68
2022/04/12 07:24:03;;;;;;;4.75;1.67;;;9.40;99.90;;;;;;4433277;32;20065;-68
2022/04/12 07:26:29;;;;;;;0.57;0.57;;;9.50;99.90;;;;;;4431078;32;20083;-68
2022/04/12 07:28:55;;;;;;;0.70;0.70;;;9.60;99.90;;;;;;4427589;32;20065;-68
2022/04/12 07:31:20;;;;;;;0.70;0.70;;;9.70;99.90;;;;;;4431232;32;20072;-68
2022/04/12 07:33:46;;;;;;;1.23;1.12;;;9.80;99.90;;;;;;4432720;32;20074;-68
2022/04/12 07:36:11;;;;;;;0.40;0.40;;;9.80;99.90;;;;;;4414525;32;82801;-68
2022/04/12 07:38:37;;;;;;;0.40;0.40;;;9.90;99.90;;;;;;4431609;32;20065;-68
2022/04/12 07:41:04;;;;;;;0.50;0.50;;;10.00;99.20;;;;;;4432278;32;20069;-68
2022/04/12 07:43:30;;;;;;;0.55;0.55;;;10.00;99.60;;;;;;4429708;32;20085;-68
2022/04/12 07:45:55;;;;;;;0.80;0.80;;;10.10;99.00;;;;;;4424782;32;20136;-69
2022/04/12 07:48:21;;;;;;;0.73;0.73;;;10.30;98.50;;;;;;4433056;32;20089;-69
2022/04/12 07:50:46;;;;;;;0.37;0.37;;;10.40;98.70;;;;;;4430633;32;20072;-69
2022/04/12 07:53:12;;;;;;;0.40;0.40;;;10.40;98.30;;;;;;4429015;32;20367;-68
2022/04/12 07:55:37;;;;;;;0.50;0.50;;;10.40;97.60;;;;;;4429031;32;20061;-68
2022/04/12 07:58:04;;;;;;;5.32;0.88;;;10.40;97.80;;;;;;4429728;32;20121;-68
2022/04/12 08:00:29;;;;;;;0.75;0.62;;;10.60;98.10;;;;;;4422415;32;20065;-68
2022/04/12 08:02:55;;;;;;;0.82;0.82;;;10.80;98.00;;;;;;4431078;32;20089;-68
2022/04/12 08:05:20;;;;;;;0.55;0.55;;;11.00;97.90;;;;;;4432828;32;20411;-68
2022/04/12 08:07:49;;;;;;;0.75;0.75;;;11.10;96.90;;;;;;4423151;32;20190;-68
2022/04/12 08:10:16;;;;;;;1.37;0.77;;;11.00;96.50;;;;;;4430206;32;20065;-68
2022/04/12 08:12:42;;;;;;;1.75;1.20;;;11.00;96.00;;;;;;4429465;32;20065;-68
2022/04/12 08:15:09;;;;;;;0.60;0.60;;;11.10;96.50;;;;;;4423297;32;20066;-68
2022/04/12 08:17:34;;;;;;;0.50;0.50;;;11.20;97.10;;;;;;4428429;32;20073;-68
2022/04/12 08:20:00;;;;;;;1.48;1.02;;;11.50;96.40;;;;;;4428541;32;20065;-68
2022/04/12 08:22:25;;;;;;;14.60;0.55;;;11.60;96.90;;;;;;4427879;32;20130;-68
2022/04/12 08:24:51;;;;;;;1.02;0.85;;;11.60;95.50;;;;;;4431950;32;20073;-68
2022/04/12 08:27:16;;;;;;;2.37;1.12;;;11.80;96.00;;;;;;4429687;32;20422;-68
2022/04/12 08:29:42;;;;;;;2.35;1.00;;;12.10;95.50;;;;;;4429356;32;20093;-68
2022/04/12 08:32:07;;;;;;;0.40;0.40;;;12.30;95.80;;;;;;4430188;32;20107;-69
2022/04/12 08:34:33;;;;;;;3.30;1.45;;;12.30;94.70;;;;;;4431763;32;20152;-69
2022/04/12 08:36:58;;;;;;;2.53;0.75;;;12.40;94.70;;;;;;4424785;32;20106;-68
2022/04/12 08:39:24;;;;;;;0.50;0.50;;;12.40;94.40;;;;;;4426643;32;20086;-68
2022/04/12 08:41:51;;;;;;;4.47;0.82;;;12.40;93.90;;;;;;4429840;32;20137;-68
2022/04/12 08:44:18;;;;;;;0.40;0.40;;;12.50;93.10;;;;;;4421864;32;20065;-68
2022/04/12 08:46:46;;;;;;;1.65;0.80;;;12.60;93.00;;;;;;4433739;32;20640;-68
2022/04/12 08:49:12;;;;;;;0.60;0.60;;;12.80;92.40;;;;;;4432594;32;20094;-68
2022/04/12 08:51:38;;;;;;;0.57;0.57;;;12.90;91.60;;;;;;4430954;32;20089;-68
2022/04/12 08:54:06;;;;;;;0.47;0.47;;;12.80;91.40;;;;;;4426895;32;20418;-68
2022/04/12 08:56:32;;;;;;;0.60;0.60;;;12.80;91.10;;;;;;4426396;32;20065;-70
2022/04/12 08:58:57;;;;;;;0.40;0.40;;;12.90;93.20;;;;;;4433061;32;20138;-69
2022/04/12 09:01:23;;;;;;;0.98;0.75;;;12.90;91.00;;;;;;4434536;32;20673;-68
2022/04/12 09:03:48;;;;;;;1.48;0.65;;;13.00;91.50;;;;;;4428161;32;20569;-68
2022/04/12 09:06:14;;;;;;;3.12;1.08;;;13.20;91.10;;;;;;4424334;32;20085;-68
2022/04/12 09:08:40;;;;;;;0.50;0.50;;;13.10;90.50;;;;;;4431701;32;20139;-69
2022/04/12 09:11:07;;;;;;;1.70;1.15;;;13.10;90.40;;;;;;4432232;32;20069;-69
2022/04/12 09:13:35;;;;;;;0.40;0.40;;;13.10;90.10;;;;;;4425590;32;20062;-68
2022/04/12 09:16:01;;;;;;;3.85;1.55;;;13.10;88.80;;;;;;4427117;32;20132;-69
2022/04/12 09:18:31;;;;;;;0.47;0.47;;;13.10;88.30;;;;;;4432820;32;20069;-69
2022/04/12 09:21:09;;;;;;;5.00;1.23;;;13.20;88.80;;;;;;4434376;32;20061;-69
2022/04/12 09:23:35;;;;;;;0.65;0.65;;;13.40;88.30;;;;;;4431175;32;20061;-69
2022/04/12 09:26:00;;;;;;;0.62;0.62;;;13.40;85.60;;;;;;4430838;32;20553;-69
2022/04/12 09:28:39;;;;;;;0.65;0.65;;;13.40;86.50;;;;;;4429783;32;20063;-69
2022/04/12 09:31:13;;;;;;;0.45;0.45;;;13.60;85.80;;;;;;4430820;32;20089;-69
2022/04/12 09:33:40;;;;;;;0.30;0.30;;;13.70;85.90;;;;;;4432834;32;20069;-69
2022/04/12 09:36:06;;;;;;;0.60;0.60;;;13.70;86.70;;;;;;4427543;32;20109;-68
2022/04/12 09:38:33;;;;;;;0.55;0.55;;;13.90;84.10;;;;;;4429696;32;20077;-68
2022/04/12 09:41:20;;;;;;;6.93;0.68;;;14.00;83.60;;;;;;4432075;32;20130;-69
2022/04/12 09:43:55;;;;;;;0.37;0.37;;;14.30;82.90;;;;;;4425966;32;20086;-69
2022/04/12 09:46:21;;;;;;;0.47;0.47;;;14.50;81.80;;;;;;4429714;32;20114;-69
2022/04/12 09:48:48;;;;;;;0.77;0.70;;;14.60;80.90;;;;;;4432721;32;20069;-69
2022/04/12 09:51:15;;;;;;;0.55;0.55;;;14.60;80.80;;;;;;4433470;32;20627;-69
2022/04/12 09:53:41;;;;;;;0.40;0.40;;;14.80;81.70;;;;;;4430999;32;20065;-69
2022/04/12 09:56:17;;;;;;;0.70;0.52;;;14.80;81.60;;;;;;4426720;32;20484;-69
2022/04/12 09:58:47;;;;;;;0.75;0.65;;;14.90;82.30;;;;;;4432923;32;20120;-69
2022/04/12 10:01:13;;;;;;;0.52;0.52;;;15.20;80.30;;;;;;4432766;32;20077;-69
2022/04/12 10:03:42;;;;;;;0.40;0.40;;;15.10;79.70;;;;;;4426321;32;20069;-69
2022/04/12 10:06:09;;;;;;;1.00;0.70;;;14.90;79.50;;;;;;4418869;32;20086;-69
2022/04/12 10:08:35;;;;;;;1.77;0.80;;;14.90;79.60;;;;;;4429870;32;20113;-69
2022/04/12 10:11:01;;;;;;;1.45;0.88;;;15.20;80.10;;;;;;4430098;32;20148;-69
2022/04/12 10:13:28;;;;;;;1.20;1.02;;;15.10;79.00;;;;;;4426707;32;20062;-68
2022/04/12 10:15:55;;;;;;;0.77;0.75;;;15.10;79.60;;;;;;4426586;32;20112;-69
2022/04/12 10:18:21;;;;;;;0.52;0.52;;;15.10;78.00;;;;;;4432632;32;20062;-69
2022/04/12 10:20:46;;;;;;;0.68;0.60;;;15.20;77.50;;;;;;4432066;32;20065;-69
2022/04/12 10:23:16;;;;;;;0.45;0.45;;;15.10;78.60;;;;;;4423121;32;20070;-69
2022/04/12 10:25:42;;;;;;;0.68;0.68;;;15.10;78.70;;;;;;4431405;32;20110;-69
2022/04/12 10:28:08;;;;;;;0.40;0.40;;;15.40;78.80;;;;;;4432647;32;20058;-69
2022/04/12 10:30:33;;;;;;;0.77;0.60;;;15.50;76.30;;;;;;4433046;32;20094;-69
2022/04/12 10:33:05;;;;;;;0.50;0.50;;;15.60;76.60;;;;;;4433846;32;20527;-69
2022/04/12 10:35:54;;;;;;;0.50;0.50;;;15.90;75.60;;;;;;4430649;32;20118;-69
2022/04/12 10:38:21;;;;;;;0.73;0.50;;;16.00;76.60;;;;;;4422733;32;20066;-69
2022/04/12 10:40:49;;;;;;;0.82;0.65;;;16.20;75.60;;;;;;4432606;32;20132;-69
2022/04/12 10:43:21;;;;;;;0.68;0.55;;;16.20;74.40;;;;;;4430550;32;20061;-69
2022/04/12 10:45:50;;;;;;;0.52;0.52;;;16.20;76.80;;;;;;4429582;32;20066;-69
2022/04/12 10:48:20;;;;;;;0.70;0.70;;;16.40;76.20;;;;;;4434507;32;20085;-69
2022/04/12 10:50:47;;;;;;;0.45;0.45;;;16.60;73.80;;;;;;4434850;32;20092;-69
2022/04/12 10:53:13;;;;;;;0.40;0.40;;;16.70;73.70;;;;;;4427237;32;20074;-69
2022/04/12 10:55:41;;;;;;;2.33;1.17;;;16.60;74.40;;;;;;4434074;32;20073;-69
2022/04/12 10:58:27;;;;;;;0.55;0.55;;;16.60;72.20;;;;;;4424527;32;20539;-69
2022/04/12 11:00:53;;;;;;;0.55;0.55;;;16.50;75.70;;;;;;4434187;32;20459;-69
2022/04/12 11:03:45;;;;;;;1.65;1.00;;;16.80;73.50;;;;;;4435417;32;20078;-69
2022/04/12 11:06:12;;;;;;;3.03;1.35;;;17.10;74.30;;;;;;4421950;32;20533;-69
2022/04/12 11:08:40;;;;;;;0.93;0.90;;;17.20;71.40;;;;;;4428246;32;20065;-69
2022/04/12 11:11:09;;;;;;;0.50;0.50;;;17.00;71.20;;;;;;4430130;32;20069;-69
2022/04/12 11:13:35;;;;;;;0.73;0.73;;;17.00;72.70;;;;;;4426258;32;20152;-69
2022/04/12 11:16:11;;;;;;;0.55;0.55;;;16.90;71.70;;;;;;4428034;32;20065;-69
2022/04/12 11:18:47;;;;;;;0.62;0.52;;;17.10;72.40;;;;;;4432266;32;20813;-69
2022/04/12 11:21:13;;;;;;;0.55;0.55;;;17.40;70.90;;;;;;4431735;32;20065;-69
2022/04/12 11:23:49;;;;;;;0.50;0.50;;;17.50;70.90;;;;;;4427400;32;20081;-69
2022/04/12 11:26:47;;;;;;;0.40;0.40;;;17.20;73.00;;;;;;4429533;32;20136;-69
2022/04/12 11:29:16;;;;;;;3.25;1.05;;;17.10;71.70;;;;;;4426746;32;20144;-68
2022/04/12 11:31:43;;;;;;;3.97;0.90;;;17.30;72.50;;;;;;4431502;32;20131;-69
2022/04/12 11:34:10;;;;;;;2.20;0.82;;;17.50;72.90;;;;;;4429607;32;20165;-69
2022/04/12 11:36:38;;;;;;;0.52;0.52;;;17.80;70.90;;;;;;4420275;32;20132;-69
2022/04/12 11:39:04;;;;;;;2.95;0.90;;;17.60;70.20;;;;;;4426481;32;20491;-69
2022/04/12 11:41:30;;;;;;;0.50;0.50;;;17.80;70.40;;;;;;4431129;32;20077;-69
2022/04/12 11:44:01;;;;;;;0.43;0.43;;;18.20;69.40;;;;;;4417021;32;20094;-68
2022/04/12 11:46:28;;;;;;;;;;;18.20;69.00;;;;;;4427903;32;20082;-68
2022/04/12 11:49:03;;;;;;;5.57;0.93;;;17.90;69.10;;;;;;4428316;32;19956;-68
2022/04/12 11:51:29;;;;;;;0.52;0.52;;;18.00;69.60;;;;;;4431313;32;20077;-69
2022/04/12 11:53:54;;;;;;;1.35;0.82;;;18.50;68.50;;;;;;4431007;32;20081;-69
2022/04/12 11:56:20;;;;;;;0.40;0.40;;;18.50;66.90;;;;;;4433173;32;20065;-69
2022/04/12 11:58:45;;;;;;;1.08;1.05;;;18.40;67.30;;;;;;4432656;32;20062;-69
2022/04/12 12:01:13;;;;;;;1.25;0.90;;;18.40;66.70;;;;;;4428724;32;20065;-69
2022/04/12 12:03:41;;;;;;;1.77;1.35;;;18.30;66.20;;;;;;4432486;32;20068;-69
2022/04/12 12:06:08;;;;;;;0.40;0.40;;;18.50;66.40;;;;;;4426260;32;20139;-69
2022/04/12 12:08:34;;;;;;;0.55;0.55;;;18.90;67.30;;;;;;4426334;32;20089;-69
2022/04/12 12:11:11;;;;;;;1.73;0.73;;;18.70;64.30;;;;;;4430586;32;20521;-69
2022/04/12 12:13:36;;;;;;;0.50;0.50;;;18.80;64.90;;;;;;4426308;32;20066;-69
2022/04/12 12:16:02;;;;;;;0.60;0.60;;;19.20;63.90;;;;;;4428252;32;20081;-69
2022/04/12 12:18:28;;;;;;;0.70;0.70;;;19.20;64.70;;;;;;4431689;32;20074;-69
2022/04/12 12:20:55;;;;;;;0.88;0.50;;;19.80;64.20;;;;;;4431595;32;20082;-69
2022/04/12 12:23:20;;;;;;;0.37;0.37;;;20.10;61.90;;;;;;4430827;32;20112;-70
2022/04/12 12:25:51;;;;;;;0.70;0.70;;;19.90;61.70;;;;;;4424286;32;20086;-70
2022/04/12 12:28:20;;;;;;;0.70;0.70;;;19.80;61.30;;;;;;4430071;32;20169;-70
2022/04/12 12:30:47;;;;;;;0.88;0.50;;;20.20;63.10;;;;;;4426585;32;20089;-69
2022/04/12 12:33:14;;;;;;;0.50;0.50;;;20.40;63.10;;;;;;4428813;32;20057;-70
2022/04/12 12:35:45;;;;;;;0.40;0.40;;;21.00;59.80;;;;;;4430017;32;20078;-69
2022/04/12 12:38:13;;;;;;;0.47;0.47;;;20.80;59.00;;;;;;4428181;32;20259;-70
2022/04/12 12:40:41;;;;;;;0.47;0.40;;;21.10;59.50;;;;;;4423568;32;20085;-70
2022/04/12 12:43:08;;;;;;;2.65;1.05;;;21.70;57.20;;;;;;4427303;32;20062;-70
2022/04/12 12:45:38;;;;;;;0.28;0.25;;;21.60;59.50;;;;;;4416925;32;20065;-70
2022/04/12 12:48:07;;;;;;;0.47;0.47;;;22.00;57.20;;;;;;4429225;32;20092;-70
2022/04/12 12:50:36;;;;;;;0.65;0.52;;;22.20;57.60;;;;;;4430921;32;20065;-70